Urbana, Illinois
Current Conditions -  °F | °C
As of 4:53 AM on Wednesday 22 Oct 2014 (Local Time) from KCMI Reporting Station
Clear Clear  
Wind Chill: 34°   Ceiling: Unl
Heat Index: 39°   Visibility: 10mi
Dew Point: 35°   Wind: 7mph
Humidity: 86%   Direction: 50°NE
Pressure: 30.27"   Gusts: NA
Location:  40.12°N, 88.2°W
Report Text: KCMI 220953Z AUTO 05006KT 10SM CLR 04/02 A3027 RMK AO2 SLP254 T00390017 $
Loading
Personal Weather Stations






























Interactive Weather Map New forecast layout! Learn more

10-Day Weather Forecast

Advertisements
Track Severe Weather on mobile